createdAt,value
2022-10-23T00:01:00.404Z,101349.94
2022-10-23T00:03:29.840Z,101340.66
2022-10-23T00:05:56.467Z,101335.69
2022-10-23T00:08:23.288Z,101329.72
2022-10-23T00:10:49.926Z,101324.56
2022-10-23T00:13:16.564Z,101327.25
2022-10-23T00:15:43.407Z,101327.44
2022-10-23T00:18:10.187Z,101328.25
2022-10-23T00:20:38.467Z,101321.25
2022-10-23T00:23:05.292Z,101323.94
2022-10-23T00:25:33.393Z,101322.91
2022-10-23T00:28:00.366Z,101328.25
2022-10-23T00:30:27.357Z,101328.25
2022-10-23T00:32:54.000Z,101329.09
2022-10-23T00:35:20.661Z,101328.25
2022-10-23T00:37:48.817Z,101326.59
2022-10-23T00:40:16.394Z,101328.44
2022-10-23T00:42:43.302Z,101333.97
2022-10-23T00:45:18.912Z,101324.94
2022-10-23T00:47:45.973Z,101327.00
2022-10-23T00:50:13.520Z,101324.34
2022-10-23T00:52:45.450Z,101313.00
2022-10-23T00:55:14.351Z,101318.34
2022-10-23T00:57:43.697Z,101311.34
2022-10-23T01:00:15.079Z,101315.03
2022-10-23T01:02:42.195Z,101312.34
2022-10-23T01:05:09.967Z,101310.91
2022-10-23T01:07:43.568Z,101314.59
2022-10-23T01:10:16.062Z,101308.63
2022-10-23T01:12:48.698Z,101312.50
2022-10-23T01:15:19.540Z,101308.38
2022-10-23T01:17:51.177Z,101314.53
2022-10-23T01:20:36.444Z,101319.06
2022-10-23T01:23:28.229Z,101313.50
2022-10-23T01:26:12.772Z,101307.16
2022-10-23T01:28:46.911Z,101312.88
2022-10-23T01:31:18.579Z,101300.53
2022-10-23T01:33:49.074Z,101294.56
2022-10-23T01:36:19.156Z,101298.25
2022-10-23T01:38:51.773Z,101294.97
2022-10-23T01:41:24.793Z,101294.31
2022-10-23T01:43:57.407Z,101290.63
2022-10-23T01:46:25.963Z,101291.66
2022-10-23T01:48:54.915Z,101283.00
2022-10-23T01:51:26.175Z,101279.50
2022-10-23T01:53:58.138Z,101282.16
2022-10-23T01:56:28.719Z,101284.00
2022-10-23T01:58:59.964Z,101283.00
2022-10-23T02:01:29.984Z,101276.81
2022-10-23T02:06:24.309Z,101273.16
2022-10-23T02:08:51.024Z,101271.31
2022-10-23T02:11:22.677Z,101266.78
2022-10-23T02:13:55.498Z,101252.63
2022-10-23T02:16:30.535Z,101258.97
2022-10-23T02:19:09.353Z,101257.31
2022-10-23T02:21:48.357Z,101258.13
2022-10-23T02:24:18.801Z,101245.63
2022-10-23T02:26:52.595Z,101238.44
2022-10-23T02:29:24.956Z,101225.09
2022-10-23T02:31:52.970Z,101233.75
2022-10-23T02:34:19.870Z,101231.25
2022-10-23T02:36:46.483Z,101237.41
2022-10-23T02:39:13.184Z,101238.44
2022-10-23T02:41:44.946Z,101249.94
2022-10-23T02:44:22.605Z,101247.47
2022-10-23T02:46:56.343Z,101245.81
2022-10-23T02:49:31.355Z,101244.38
2022-10-23T02:52:07.753Z,101246.19
2022-10-23T02:54:51.201Z,101241.88
2022-10-23T02:57:26.405Z,101241.69
2022-10-23T03:00:01.153Z,101233.03
2022-10-23T03:02:37.682Z,101233.03
2022-10-23T03:05:08.640Z,101226.88
2022-10-23T03:07:36.109Z,101222.72
2022-10-23T03:10:04.787Z,101216.59
2022-10-23T03:12:31.410Z,101210.44
2022-10-23T03:14:59.633Z,101209.38
2022-10-23T03:17:27.197Z,101207.53
2022-10-23T03:19:55.347Z,101191.94
2022-10-23T03:22:21.961Z,101198.09
2022-10-23T03:24:48.619Z,101191.09
2022-10-23T03:27:16.772Z,101195.44
2022-10-23T03:29:43.449Z,101191.75
2022-10-23T03:32:10.068Z,101189.69
2022-10-23T03:34:36.686Z,101179.22
2022-10-23T03:37:05.565Z,101174.69
2022-10-23T03:39:32.178Z,101174.91
2022-10-23T03:41:59.019Z,101176.34
2022-10-23T03:44:26.239Z,101175.31
2022-10-23T03:46:52.903Z,101173.66
2022-10-23T03:49:19.556Z,101172.66
2022-10-23T03:51:51.967Z,101168.13
2022-10-23T03:54:22.399Z,101165.47
2022-10-23T03:56:51.453Z,101159.31
2022-10-23T03:59:20.651Z,101160.13
2022-10-23T04:01:47.626Z,101157.28
2022-10-23T04:04:15.106Z,101154.41
2022-10-23T04:06:41.905Z,101157.69
2022-10-23T04:09:08.763Z,101154.00
2022-10-23T04:11:37.111Z,101147.66
2022-10-23T04:14:04.011Z,101143.97
2022-10-23T04:16:30.712Z,101134.94
2022-10-23T04:18:57.346Z,101125.91
2022-10-23T04:21:23.993Z,101129.19
2022-10-23T04:23:50.630Z,101125.50
2022-10-23T04:26:17.665Z,101122.66
2022-10-23T04:28:45.626Z,101121.63
2022-10-23T04:31:12.391Z,101121.63
2022-10-23T04:33:39.073Z,101133.16
2022-10-23T04:36:06.641Z,101129.47
2022-10-23T04:38:33.292Z,101127.63
2022-10-23T04:40:59.935Z,101121.22
2022-10-23T04:43:26.831Z,101107.28
2022-10-23T04:45:55.789Z,101114.25
2022-10-23T04:48:25.564Z,101116.09
2022-10-23T04:50:56.590Z,101111.78
2022-10-23T04:53:23.605Z,101106.44
2022-10-23T04:55:50.842Z,101097.41
2022-10-23T04:58:18.945Z,101098.25
2022-10-23T05:00:46.238Z,101104.59
2022-10-23T05:03:17.783Z,101094.75
2022-10-23T05:05:44.873Z,101094.75
2022-10-23T05:08:15.556Z,101100.69
2022-10-23T05:10:47.212Z,101109.53
2022-10-23T05:13:13.903Z,101096.00
2022-10-23T05:15:40.611Z,101083.47
2022-10-23T05:18:12.001Z,101085.94
2022-10-23T05:20:40.577Z,101086.78
2022-10-23T05:23:10.512Z,101082.44
2022-10-23T05:25:37.274Z,101083.28
2022-10-23T05:28:06.350Z,101079.78
2022-10-23T05:30:33.862Z,101073.41
2022-10-23T05:33:01.741Z,101074.25
2022-10-23T05:35:30.208Z,101077.75
2022-10-23T05:37:59.900Z,101075.06
2022-10-23T05:40:27.561Z,101076.69
2022-10-23T05:42:54.232Z,101081.66
2022-10-23T05:45:20.980Z,101083.31
2022-10-23T05:47:49.167Z,101077.13
2022-10-23T05:50:16.879Z,101077.13
2022-10-23T05:52:47.379Z,101085.78
2022-10-23T05:55:15.833Z,101081.88
2022-10-23T05:57:42.913Z,101070.19
2022-10-23T06:00:11.311Z,101071.00
2022-10-23T06:02:38.086Z,101076.97
2022-10-23T06:05:05.218Z,101068.78
2022-10-23T06:07:35.142Z,101063.44
2022-10-23T06:10:03.204Z,101063.22
2022-10-23T06:12:31.574Z,101062.19
2022-10-23T06:14:58.391Z,101059.53
2022-10-23T06:17:24.988Z,101062.81
2022-10-23T06:19:51.642Z,101058.31
2022-10-23T06:24:45.065Z,101051.75
2022-10-23T06:27:11.666Z,101037.34
2022-10-23T06:29:41.574Z,101040.66
2022-10-23T06:32:08.284Z,101031.63
2022-10-23T06:34:34.964Z,101032.44
2022-10-23T06:37:01.967Z,101026.69
2022-10-23T06:39:31.254Z,101024.00
2022-10-23T06:41:58.932Z,101026.47
2022-10-23T06:44:25.568Z,101027.13
2022-10-23T06:46:56.061Z,101022.59
2022-10-23T06:49:22.698Z,101023.22
2022-10-23T06:51:49.340Z,101027.53
2022-10-23T06:54:15.965Z,101037.00
2022-10-23T06:56:42.580Z,101029.81
2022-10-23T06:59:09.172Z,101018.09
2022-10-23T07:01:36.122Z,101012.56
2022-10-23T07:04:06.473Z,101008.88
2022-10-23T07:06:33.325Z,101019.31
2022-10-23T07:09:00.136Z,101019.13
2022-10-23T07:11:27.466Z,101008.44
2022-10-23T07:13:54.072Z,101017.91
2022-10-23T07:16:22.513Z,101016.91
2022-10-23T07:18:58.701Z,101018.53
2022-10-23T07:21:27.184Z,101010.31
2022-10-23T07:23:53.833Z,101017.31
2022-10-23T07:26:20.523Z,101011.97
2022-10-23T07:28:48.571Z,101011.56
2022-10-23T07:31:15.217Z,101008.88
2022-10-23T07:33:41.839Z,101004.13
2022-10-23T07:36:09.782Z,101003.94
2022-10-23T07:38:37.735Z,101008.06
2022-10-23T07:41:07.781Z,101002.53
2022-10-23T07:43:36.734Z,101004.16
2022-10-23T07:46:03.443Z,101001.28
2022-10-23T07:48:30.803Z,100996.56
2022-10-23T07:50:58.359Z,100997.38
2022-10-23T07:53:25.962Z,100988.16
2022-10-23T07:55:55.600Z,100986.28
2022-10-23T07:58:22.817Z,100985.06
2022-10-23T08:00:54.953Z,100985.69
2022-10-23T08:03:21.795Z,100990.00
2022-10-23T08:05:48.507Z,100980.72
2022-10-23T08:08:15.516Z,100984.84
2022-10-23T08:10:42.682Z,100981.97
2022-10-23T08:13:13.256Z,100982.56
2022-10-23T08:15:40.385Z,100980.53
2022-10-23T08:18:08.213Z,100975.84
2022-10-23T08:20:39.130Z,100973.78
2022-10-23T08:23:06.215Z,100976.22
2022-10-23T08:28:06.333Z,100977.47
2022-10-23T08:30:34.781Z,100971.94
2022-10-23T08:33:03.279Z,100970.88
2022-10-23T08:35:29.946Z,100958.13
2022-10-23T08:37:56.769Z,100955.88
2022-10-23T08:40:25.393Z,100954.84
2022-10-23T08:42:58.996Z,100947.22
2022-10-23T08:45:31.288Z,100947.84
2022-10-23T08:48:09.440Z,100949.06
2022-10-23T08:50:41.612Z,100943.50
2022-10-23T08:53:16.065Z,100947.41
2022-10-23T08:55:46.236Z,100938.13
2022-10-23T08:58:18.426Z,100922.50
2022-10-23T09:00:47.542Z,100930.31
2022-10-23T09:03:16.394Z,100937.09
2022-10-23T09:05:50.573Z,100935.03
2022-10-23T09:08:30.529Z,100931.09
2022-10-23T09:11:05.182Z,100921.63
2022-10-23T09:13:50.139Z,100909.66
2022-10-23T09:16:29.122Z,100910.28
2022-10-23T09:18:58.357Z,100902.44
2022-10-23T09:21:27.415Z,100900.38
2022-10-23T09:23:54.123Z,100906.97
2022-10-23T09:26:22.876Z,100908.38
2022-10-23T09:28:50.319Z,100900.16
2022-10-23T09:31:18.445Z,100900.78
2022-10-23T09:33:54.791Z,100891.47
2022-10-23T09:36:24.508Z,100888.38
2022-10-23T09:38:53.522Z,100893.28
2022-10-23T09:41:23.278Z,100892.06
2022-10-23T09:44:14.174Z,100896.75
2022-10-23T09:46:42.674Z,100882.34
2022-10-23T09:49:17.297Z,100880.06
2022-10-23T09:52:01.533Z,100882.31
2022-10-23T09:54:31.213Z,100870.34
2022-10-23T09:57:05.084Z,100864.56
2022-10-23T09:59:32.724Z,100856.09
2022-10-23T10:02:01.139Z,100854.84
2022-10-23T10:04:32.375Z,100861.63
2022-10-23T10:07:02.036Z,100865.56
2022-10-23T10:09:28.863Z,100859.97
2022-10-23T10:11:59.285Z,100846.97
2022-10-23T10:15:01.674Z,100828.81
2022-10-23T10:17:39.458Z,100851.69
2022-10-23T10:20:29.913Z,100844.03
2022-10-23T10:23:06.243Z,100828.34
2022-10-23T10:25:40.217Z,100833.25
2022-10-23T10:28:27.578Z,100828.28
2022-10-23T10:31:08.773Z,100822.47
2022-10-23T10:33:44.444Z,100822.06
2022-10-23T10:39:01.463Z,100803.44
2022-10-23T10:41:51.983Z,100806.53
2022-10-23T10:44:41.303Z,100802.56
2022-10-23T10:47:18.477Z,100799.44
2022-10-23T10:49:59.734Z,100777.78
2022-10-23T10:52:30.526Z,100772.19
2022-10-23T10:55:07.007Z,100757.53
2022-10-23T10:57:39.307Z,100761.63
2022-10-23T11:00:14.349Z,100754.16
2022-10-23T11:02:46.557Z,100747.53
2022-10-23T11:05:22.224Z,100745.47
2022-10-23T11:07:55.546Z,100741.28
2022-10-23T11:10:24.002Z,100741.91
2022-10-23T11:12:51.501Z,100733.38
2022-10-23T11:15:23.483Z,100740.19
2022-10-23T11:17:54.951Z,100739.75
2022-10-23T11:20:50.969Z,100732.06
2022-10-23T11:23:46.247Z,100733.25
2022-10-23T11:26:27.344Z,100722.88
2022-10-23T11:29:13.425Z,100718.13
2022-10-23T11:31:53.444Z,100716.84
2022-10-23T11:34:54.411Z,100720.72
2022-10-23T11:37:22.965Z,100711.41
2022-10-23T11:40:04.508Z,100693.81
2022-10-23T11:42:45.810Z,100679.94
2022-10-23T11:45:30.950Z,100664.81
2022-10-23T11:47:59.524Z,100674.03
2022-10-23T11:50:32.826Z,100666.38
2022-10-23T11:53:15.009Z,100668.56
2022-10-23T11:55:58.106Z,100667.09
2022-10-23T11:58:32.103Z,100657.75
2022-10-23T12:01:04.289Z,100659.75
2022-10-23T12:03:39.876Z,100645.84
2022-10-23T12:06:08.964Z,100645.19
2022-10-23T12:08:40.862Z,100649.03
2022-10-23T12:11:29.880Z,100660.72
2022-10-23T12:13:58.035Z,100639.59
2022-10-23T12:16:35.199Z,100649.63
2022-10-23T12:19:17.907Z,100636.31
2022-10-23T12:21:44.960Z,100624.09
2022-10-23T12:24:34.719Z,100619.66
2022-10-23T12:27:08.874Z,100620.00
2022-10-23T12:29:49.768Z,100614.75
2022-10-23T12:32:27.921Z,100617.53
2022-10-23T12:35:13.059Z,100613.34
2022-10-23T12:37:55.897Z,100606.44
2022-10-23T12:40:29.840Z,100600.59
2022-10-23T12:42:58.523Z,100612.50
2022-10-23T12:45:27.734Z,100599.66
2022-10-23T12:47:54.670Z,100597.31
2022-10-23T12:50:22.840Z,100595.81
2022-10-23T12:52:54.552Z,100595.34
2022-10-23T12:55:21.963Z,100578.75
2022-10-23T12:57:48.824Z,100580.94
2022-10-23T13:00:17.351Z,100582.34
2022-10-23T13:02:46.236Z,100574.63
2022-10-23T13:05:17.384Z,100569.81
2022-10-23T13:07:47.628Z,100565.63
2022-10-23T13:10:16.278Z,100565.13
2022-10-23T13:12:49.680Z,100568.63
2022-10-23T13:15:18.519Z,100551.00
2022-10-23T13:18:00.997Z,100550.72
2022-10-23T13:20:29.744Z,100557.50
2022-10-23T13:23:00.827Z,100542.78
2022-10-23T13:25:30.849Z,100541.47
2022-10-23T13:28:12.939Z,100532.09
2022-10-23T13:30:42.779Z,100529.41
2022-10-23T13:33:23.463Z,100528.91
2022-10-23T13:35:57.758Z,100518.75
2022-10-23T13:38:32.705Z,100513.13
2022-10-23T13:41:00.718Z,100508.34
2022-10-23T13:43:28.290Z,100498.38
2022-10-23T13:45:55.680Z,100502.44
2022-10-23T13:48:24.475Z,100497.66
2022-10-23T13:50:51.506Z,100497.66
2022-10-23T13:53:18.328Z,100482.09
2022-10-23T13:55:48.962Z,100472.97
2022-10-23T13:58:15.603Z,100461.13
2022-10-23T14:00:43.776Z,100457.13
2022-10-23T14:03:11.154Z,100455.03
2022-10-23T14:05:39.227Z,100451.00
2022-10-23T14:08:06.643Z,100455.34
2022-10-23T14:10:33.909Z,100451.59
2022-10-23T14:13:00.610Z,100456.16
2022-10-23T14:15:27.278Z,100460.25
2022-10-23T14:17:58.937Z,100450.53
2022-10-23T14:20:27.876Z,100451.13
2022-10-23T14:22:56.246Z,100446.56
2022-10-23T14:25:23.247Z,100437.44
2022-10-23T14:27:49.983Z,100449.81
2022-10-23T14:30:16.729Z,100444.41
2022-10-23T14:32:44.460Z,100446.28
2022-10-23T14:35:11.419Z,100457.88
2022-10-23T14:37:39.452Z,100442.53
2022-10-23T14:40:08.899Z,100445.22
2022-10-23T14:42:35.743Z,100436.09
2022-10-23T14:45:02.719Z,100432.34
2022-10-23T14:47:29.758Z,100428.03
2022-10-23T14:49:56.652Z,100427.22
2022-10-23T14:52:23.837Z,100427.22
2022-10-23T14:54:51.574Z,100432.34
2022-10-23T14:57:21.765Z,100433.41
2022-10-23T14:59:49.317Z,100434.47
2022-10-23T15:02:16.899Z,100431.78
2022-10-23T15:04:43.659Z,100427.22
2022-10-23T15:07:10.497Z,100429.09
2022-10-23T15:09:37.446Z,100432.84
2022-10-23T15:12:04.569Z,100432.03
2022-10-23T15:14:33.947Z,100429.59
2022-10-23T15:17:00.621Z,100424.44
2022-10-23T15:19:27.414Z,100416.38
2022-10-23T15:21:54.259Z,100406.66
2022-10-23T15:24:21.084Z,100395.09
2022-10-23T15:26:48.616Z,100399.66
2022-10-23T15:29:16.356Z,100406.91
2022-10-23T15:31:47.724Z,100399.66
2022-10-23T15:34:17.099Z,100394.50
2022-10-23T15:36:45.038Z,100392.09
2022-10-23T15:39:12.946Z,100392.09
2022-10-23T15:41:40.980Z,100389.63
2022-10-23T15:44:09.350Z,100389.88
2022-10-23T15:46:36.416Z,100386.59
2022-10-23T15:49:04.932Z,100399.25
2022-10-23T15:51:32.300Z,100395.19
2022-10-23T15:53:59.289Z,100398.94
2022-10-23T15:56:26.441Z,100390.53
2022-10-23T15:58:53.124Z,100391.59
2022-10-23T16:01:20.932Z,100391.03
2022-10-23T16:03:47.622Z,100395.00
2022-10-23T16:06:20.211Z,100385.56
2022-10-23T16:08:47.492Z,100386.88
2022-10-23T16:11:16.755Z,100384.41
2022-10-23T16:13:43.959Z,100379.28
2022-10-23T16:16:11.203Z,100364.47
2022-10-23T16:18:38.109Z,100353.69
2022-10-23T16:21:05.214Z,100338.03
2022-10-23T16:23:33.944Z,100339.09
2022-10-23T16:26:07.763Z,100320.78
2022-10-23T16:28:34.612Z,100313.78
2022-10-23T16:31:01.364Z,100293.31
2022-10-23T16:33:27.939Z,100287.34
2022-10-23T16:35:54.660Z,100285.47
2022-10-23T16:38:21.263Z,100292.75
2022-10-23T16:40:53.824Z,100301.03
2022-10-23T16:43:20.424Z,100307.22
2022-10-23T16:45:47.207Z,100307.22
2022-10-23T16:48:13.777Z,100298.03
2022-10-23T16:50:41.437Z,100304.47
2022-10-23T16:53:08.075Z,100318.16
2022-10-23T16:55:34.749Z,100329.19
2022-10-23T16:58:03.667Z,100331.03
2022-10-23T17:00:35.327Z,100346.59
2022-10-23T17:03:03.172Z,100353.84
2022-10-23T17:05:33.304Z,100354.91
2022-10-23T17:08:00.715Z,100361.91
2022-10-23T17:10:27.663Z,100353.03
2022-10-23T17:12:54.441Z,100356.75
2022-10-23T17:15:24.022Z,100354.31
2022-10-23T17:17:50.927Z,100343.81
2022-10-23T17:20:21.993Z,100345.13
2022-10-23T17:22:49.525Z,100334.38
2022-10-23T17:25:17.495Z,100323.63
2022-10-23T17:27:46.416Z,100326.31
2022-10-23T17:30:13.410Z,100327.13
2022-10-23T17:32:41.954Z,100339.75
2022-10-23T17:35:13.070Z,100350.50
2022-10-23T17:37:42.323Z,100349.69
2022-10-23T17:40:09.924Z,100341.38
2022-10-23T17:42:36.690Z,100349.22
2022-10-23T17:45:03.571Z,100341.97
2022-10-23T17:47:30.591Z,100341.97
2022-10-23T17:49:58.740Z,100341.97
2022-10-23T17:52:25.543Z,100348.13
2022-10-23T17:54:52.891Z,100344.38
2022-10-23T17:57:19.641Z,100344.38
2022-10-23T17:59:46.373Z,100338.78
2022-10-23T18:02:13.113Z,100329.06
2022-10-23T18:04:39.969Z,100328.00
2022-10-23T18:07:08.175Z,100333.38
2022-10-23T18:09:34.907Z,100337.94
2022-10-23T18:12:01.596Z,100346.59
2022-10-23T18:14:29.556Z,100340.16
2022-10-23T18:16:56.570Z,100337.25
2022-10-23T18:19:23.638Z,100321.13
2022-10-23T18:21:50.416Z,100307.66
2022-10-23T18:24:19.634Z,100303.06
2022-10-23T18:26:48.184Z,100309.28
2022-10-23T18:29:17.520Z,100306.03
2022-10-23T18:31:44.787Z,100314.91
2022-10-23T18:34:15.601Z,100311.41
2022-10-23T18:36:42.231Z,100304.97
2022-10-23T18:39:12.599Z,100307.66
2022-10-23T18:41:46.266Z,100304.97
2022-10-23T18:44:19.047Z,100298.53
2022-10-23T18:46:47.038Z,100300.66
2022-10-23T18:49:14.731Z,100300.66
2022-10-23T18:51:41.678Z,100296.09
2022-10-23T18:54:11.108Z,100283.47
2022-10-23T18:56:39.685Z,100289.63
2022-10-23T18:59:10.006Z,100291.53
2022-10-23T19:01:36.718Z,100283.72
2022-10-23T19:04:04.131Z,100272.13
2022-10-23T19:06:35.818Z,100282.06
2022-10-23T19:09:06.033Z,100288.28
2022-10-23T19:11:33.023Z,100282.91
2022-10-23T19:13:59.670Z,100270.50
2022-10-23T19:16:30.840Z,100268.41
2022-10-23T19:19:00.477Z,100259.53
2022-10-23T19:21:31.682Z,100256.00
2022-10-23T19:24:01.342Z,100258.94
2022-10-23T19:26:29.902Z,100260.00
2022-10-23T19:28:58.879Z,100267.25
2022-10-23T19:31:27.399Z,100269.69
2022-10-23T19:33:54.455Z,100288.50
2022-10-23T19:36:23.405Z,100304.16
2022-10-23T19:38:50.224Z,100299.59
2022-10-23T19:41:24.470Z,100308.44
2022-10-23T19:43:51.198Z,100313.59
2022-10-23T19:46:17.933Z,100320.59
2022-10-23T19:48:46.868Z,100315.81
2022-10-23T19:51:13.725Z,100300.50
2022-10-23T19:53:41.373Z,100304.22
2022-10-23T19:56:10.769Z,100307.16
2022-10-23T19:58:37.584Z,100290.22
2022-10-23T20:01:09.554Z,100291.84
2022-10-23T20:03:36.298Z,100309.63
2022-10-23T20:06:04.458Z,100306.69
2022-10-23T20:08:34.246Z,100312.88
2022-10-23T20:11:02.009Z,100309.38
2022-10-23T20:13:28.800Z,100311.25
2022-10-23T20:15:55.572Z,100322.81
2022-10-23T20:18:22.359Z,100325.50
2022-10-23T20:20:49.370Z,100321.75
2022-10-23T20:23:17.548Z,100324.44
2022-10-23T20:25:44.239Z,100333.56
2022-10-23T20:28:14.255Z,100340.00
2022-10-23T20:30:42.508Z,100338.13
2022-10-23T20:33:09.421Z,100344.31
2022-10-23T20:35:40.433Z,100341.06
2022-10-23T20:38:08.577Z,100338.38
2022-10-23T20:40:36.839Z,100327.03
2022-10-23T20:43:03.574Z,100335.09
2022-10-23T20:45:30.256Z,100335.34
2022-10-23T20:47:57.132Z,100333.47
2022-10-23T20:50:24.494Z,100350.69
2022-10-23T20:52:51.844Z,100342.03
2022-10-23T20:55:19.370Z,100354.44
2022-10-23T20:57:47.562Z,100354.44
2022-10-23T21:00:15.611Z,100361.44
2022-10-23T21:02:44.878Z,100361.16
2022-10-23T21:05:13.903Z,100366.53
2022-10-23T21:07:40.569Z,100368.41
2022-10-23T21:10:08.121Z,100366.81
2022-10-23T21:12:35.482Z,100371.59
2022-10-23T21:15:03.842Z,100367.28
2022-10-23T21:17:35.681Z,100371.03
2022-10-23T21:20:02.788Z,100374.78
2022-10-23T21:22:29.739Z,100371.53
2022-10-23T21:24:58.352Z,100375.28
2022-10-23T21:27:24.815Z,100374.09
2022-10-23T21:29:51.648Z,100379.47
2022-10-23T21:32:20.848Z,100376.78
2022-10-23T21:34:47.555Z,100375.44
2022-10-23T21:37:14.882Z,100369.19
2022-10-23T21:39:42.473Z,100368.38
2022-10-23T21:42:09.446Z,100371.31
2022-10-23T21:44:36.255Z,100372.34
2022-10-23T21:47:02.822Z,100372.34
2022-10-23T21:49:30.973Z,100376.34
2022-10-23T21:51:57.602Z,100377.41
2022-10-23T21:54:24.300Z,100367.72
2022-10-23T21:56:53.930Z,100369.81
2022-10-23T21:59:22.962Z,100381.38
2022-10-23T22:01:50.272Z,100388.41
2022-10-23T22:04:19.087Z,100400.19
2022-10-23T22:06:48.620Z,100401.25
2022-10-23T22:09:19.412Z,100413.28
2022-10-23T22:11:46.518Z,100424.53
2022-10-23T22:14:13.330Z,100409.38
2022-10-23T22:16:41.878Z,100391.75
2022-10-23T22:19:10.695Z,100412.34
2022-10-23T22:21:37.564Z,100408.47
2022-10-23T22:24:06.308Z,100407.09
2022-10-23T22:26:35.748Z,100415.16
2022-10-23T22:29:05.631Z,100410.56
2022-10-23T22:31:33.748Z,100400.31
2022-10-23T22:34:13.031Z,100389.81
2022-10-23T22:36:48.305Z,100399.16
2022-10-23T22:39:16.296Z,100388.66
2022-10-23T22:41:47.471Z,100399.28
2022-10-23T22:44:14.913Z,100395.22
2022-10-23T22:46:42.313Z,100405.38
2022-10-23T22:49:09.441Z,100405.63
2022-10-23T22:51:38.923Z,100399.19
2022-10-23T22:54:06.054Z,100402.09
2022-10-23T22:56:34.443Z,100391.63
2022-10-23T22:59:01.371Z,100383.44
2022-10-23T23:01:31.398Z,100381.81
2022-10-23T23:04:08.651Z,100375.88
2022-10-23T23:06:45.701Z,100370.50
2022-10-23T23:09:14.208Z,100364.78
2022-10-23T23:11:51.915Z,100366.88
2022-10-23T23:14:22.978Z,100358.03
2022-10-23T23:16:51.774Z,100356.06
2022-10-23T23:19:18.657Z,100353.84
2022-10-23T23:21:45.313Z,100351.41
2022-10-23T23:24:12.159Z,100340.06
2022-10-23T23:26:38.882Z,100349.19
2022-10-23T23:29:07.217Z,100336.81
2022-10-23T23:31:33.952Z,100326.78
2022-10-23T23:34:01.007Z,100343.94
2022-10-23T23:36:28.613Z,100327.25
2022-10-23T23:38:56.816Z,100327.72
2022-10-23T23:41:24.544Z,100322.78
2022-10-23T23:43:54.278Z,100333.78
2022-10-23T23:46:22.405Z,100327.59
2022-10-23T23:48:49.857Z,100328.88
2022-10-23T23:51:18.812Z,100325.38
2022-10-23T23:53:45.638Z,100319.69
2022-10-23T23:56:12.251Z,100324.69
2022-10-23T23:58:38.983Z,100318.50
